createdAt,value
2023-01-17T00:01:49.515Z,100.00
2023-01-17T00:04:35.905Z,100.00
2023-01-17T00:07:22.934Z,100.00
2023-01-17T00:09:53.612Z,100.00
2023-01-17T00:12:22.134Z,100.00
2023-01-17T00:14:53.226Z,100.00
2023-01-17T00:17:20.759Z,100.00
2023-01-17T00:20:05.923Z,100.00
2023-01-17T00:22:51.901Z,100.00
2023-01-17T00:25:39.202Z,100.00
2023-01-17T00:28:06.317Z,100.00
2023-01-17T00:30:33.556Z,100.00
2023-01-17T00:33:02.796Z,100.00
2023-01-17T00:35:30.876Z,100.00
2023-01-17T00:38:06.969Z,100.00
2023-01-17T00:40:34.632Z,100.00
2023-01-17T00:43:19.954Z,100.00
2023-01-17T00:46:06.106Z,100.00
2023-01-17T00:48:51.650Z,100.00
2023-01-17T00:51:37.470Z,100.00
2023-01-17T00:54:22.879Z,100.00
2023-01-17T00:57:12.541Z,100.00
2023-01-17T00:59:57.984Z,100.00
2023-01-17T01:02:43.431Z,100.00
2023-01-17T01:05:29.705Z,100.00
2023-01-17T01:08:16.029Z,100.00
2023-01-17T01:11:02.262Z,100.00
2023-01-17T01:13:48.163Z,100.00
2023-01-17T01:16:35.023Z,100.00
2023-01-17T01:19:20.286Z,100.00
2023-01-17T01:22:06.581Z,100.00
2023-01-17T01:24:52.023Z,100.00
2023-01-17T01:27:37.368Z,100.00
2023-01-17T01:30:25.412Z,100.00
2023-01-17T01:33:11.872Z,100.00
2023-01-17T01:35:38.412Z,100.00
2023-01-17T01:38:04.987Z,100.00
2023-01-17T01:40:31.575Z,100.00
2023-01-17T01:43:00.921Z,100.00
2023-01-17T01:45:29.713Z,100.00
2023-01-17T01:48:06.942Z,100.00
2023-01-17T01:50:35.396Z,100.00
2023-01-17T01:53:03.766Z,100.00
2023-01-17T01:55:34.528Z,100.00
2023-01-17T01:58:14.643Z,100.00
2023-01-17T02:00:42.047Z,100.00
2023-01-17T02:03:11.941Z,100.00
2023-01-17T02:05:38.563Z,100.00
2023-01-17T02:08:08.342Z,100.00
2023-01-17T02:10:38.216Z,100.00
2023-01-17T02:13:05.578Z,100.00
2023-01-17T02:15:44.479Z,100.00
2023-01-17T02:18:37.040Z,100.00
2023-01-17T02:21:12.819Z,100.00
2023-01-17T02:24:08.107Z,100.00
2023-01-17T02:26:56.195Z,100.00
2023-01-17T02:29:44.376Z,100.00
2023-01-17T02:32:15.574Z,100.00
2023-01-17T02:35:20.974Z,100.00
2023-01-17T02:38:05.217Z,100.00
2023-01-17T02:40:42.210Z,100.00
2023-01-17T02:43:13.404Z,100.00
2023-01-17T02:45:40.250Z,100.00
2023-01-17T02:48:11.362Z,100.00
2023-01-17T02:50:54.439Z,100.00
2023-01-17T02:53:43.371Z,100.00
2023-01-17T02:56:34.129Z,100.00
2023-01-17T02:59:40.464Z,100.00
2023-01-17T03:02:28.565Z,100.00
2023-01-17T03:05:02.246Z,100.00
2023-01-17T03:07:29.436Z,100.00
2023-01-17T03:10:02.113Z,100.00
2023-01-17T03:12:33.455Z,100.00
2023-01-17T03:14:59.968Z,100.00
2023-01-17T03:17:32.126Z,100.00
2023-01-17T03:19:58.937Z,100.00
2023-01-17T03:22:25.466Z,100.00
2023-01-17T03:24:51.979Z,100.00
2023-01-17T03:27:18.617Z,100.00
2023-01-17T03:29:45.176Z,100.00
2023-01-17T03:32:11.718Z,100.00
2023-01-17T03:34:38.304Z,100.00
2023-01-17T03:37:04.811Z,100.00
2023-01-17T03:39:31.332Z,100.00
2023-01-17T03:41:57.925Z,100.00
2023-01-17T03:44:24.424Z,100.00
2023-01-17T03:46:50.939Z,100.00
2023-01-17T03:49:18.784Z,100.00
2023-01-17T03:51:48.490Z,100.00
2023-01-17T03:54:14.999Z,100.00
2023-01-17T03:56:41.606Z,100.00
2023-01-17T03:59:08.137Z,100.00
2023-01-17T04:01:34.971Z,100.00
2023-01-17T04:04:04.731Z,100.00
2023-01-17T04:06:31.272Z,100.00
2023-01-17T04:08:57.813Z,100.00
2023-01-17T04:11:24.589Z,100.00
2023-01-17T04:13:51.096Z,100.00
2023-01-17T04:16:19.447Z,100.00
2023-01-17T04:18:46.645Z,100.00
2023-01-17T04:21:13.155Z,100.00
2023-01-17T04:23:39.757Z,100.00
2023-01-17T04:26:06.347Z,100.00
2023-01-17T04:28:32.887Z,100.00
2023-01-17T04:31:00.004Z,100.00
2023-01-17T04:33:26.690Z,100.00
2023-01-17T04:35:53.955Z,100.00
2023-01-17T04:38:20.726Z,100.00
2023-01-17T04:40:47.441Z,100.00
2023-01-17T04:43:14.142Z,100.00
2023-01-17T04:45:40.718Z,100.00
2023-01-17T04:48:07.774Z,100.00
2023-01-17T04:50:34.350Z,100.00
2023-01-17T04:53:01.003Z,100.00
2023-01-17T04:55:27.641Z,100.00
2023-01-17T04:57:55.695Z,100.00
2023-01-17T05:00:24.157Z,100.00
2023-01-17T05:02:52.102Z,100.00
2023-01-17T05:05:18.665Z,100.00
2023-01-17T05:07:53.360Z,100.00
2023-01-17T05:10:19.887Z,100.00
2023-01-17T05:12:59.295Z,100.00
2023-01-17T05:15:26.731Z,100.00
2023-01-17T05:17:53.558Z,100.00
2023-01-17T05:20:21.467Z,100.00
2023-01-17T05:23:00.384Z,100.00
2023-01-17T05:25:31.343Z,100.00
2023-01-17T05:28:01.608Z,100.00
2023-01-17T05:30:32.487Z,100.00
2023-01-17T05:32:59.246Z,100.00
2023-01-17T05:35:28.502Z,100.00
2023-01-17T05:37:55.796Z,100.00
2023-01-17T05:40:26.416Z,100.00
2023-01-17T05:42:55.128Z,100.00
2023-01-17T05:45:23.887Z,100.00
2023-01-17T05:47:51.986Z,100.00
2023-01-17T05:50:21.491Z,100.00
2023-01-17T05:52:52.979Z,100.00
2023-01-17T05:55:22.736Z,100.00
2023-01-17T05:57:50.255Z,100.00
2023-01-17T06:00:17.618Z,100.00
2023-01-17T06:02:45.387Z,100.00
2023-01-17T06:05:12.012Z,100.00
2023-01-17T06:07:40.940Z,100.00
2023-01-17T06:10:07.806Z,100.00
2023-01-17T06:12:34.333Z,100.00
2023-01-17T06:15:01.036Z,100.00
2023-01-17T06:17:30.507Z,100.00
2023-01-17T06:19:58.155Z,100.00
2023-01-17T06:22:24.823Z,100.00
2023-01-17T06:24:51.403Z,100.00
2023-01-17T06:27:18.134Z,100.00
2023-01-17T06:29:44.948Z,100.00
2023-01-17T06:32:13.273Z,100.00
2023-01-17T06:34:40.399Z,100.00
2023-01-17T06:37:07.727Z,100.00
2023-01-17T06:39:34.263Z,100.00
2023-01-17T06:42:01.152Z,100.00
2023-01-17T06:44:27.914Z,100.00
2023-01-17T06:46:54.461Z,100.00
2023-01-17T06:49:21.112Z,100.00
2023-01-17T06:51:47.671Z,100.00
2023-01-17T06:54:14.361Z,100.00
2023-01-17T06:56:42.938Z,100.00
2023-01-17T06:59:10.914Z,100.00
2023-01-17T07:01:37.541Z,100.00
2023-01-17T07:04:04.548Z,100.00
2023-01-17T07:06:31.132Z,100.00
2023-01-17T07:08:58.984Z,100.00
2023-01-17T07:11:27.315Z,100.00
2023-01-17T07:13:54.189Z,100.00
2023-01-17T07:16:21.059Z,100.00
2023-01-17T07:18:47.709Z,100.00
2023-01-17T07:21:16.253Z,100.00
2023-01-17T07:23:44.891Z,100.00
2023-01-17T07:26:11.504Z,100.00
2023-01-17T07:28:38.024Z,100.00
2023-01-17T07:31:07.115Z,100.00
2023-01-17T07:33:34.395Z,100.00
2023-01-17T07:36:09.471Z,100.00
2023-01-17T07:38:36.317Z,100.00
2023-01-17T07:41:02.910Z,100.00
2023-01-17T07:43:29.505Z,100.00
2023-01-17T07:45:56.175Z,100.00
2023-01-17T07:48:24.223Z,100.00
2023-01-17T07:50:55.312Z,100.00
2023-01-17T07:53:30.232Z,100.00
2023-01-17T07:56:05.768Z,100.00
2023-01-17T07:58:32.762Z,100.00
2023-01-17T08:01:09.336Z,100.00
2023-01-17T08:03:39.914Z,100.00
2023-01-17T08:06:19.187Z,100.00
2023-01-17T08:08:46.464Z,100.00
2023-01-17T08:11:13.528Z,100.00
2023-01-17T08:13:41.880Z,100.00
2023-01-17T08:16:13.289Z,100.00
2023-01-17T08:18:40.462Z,100.00
2023-01-17T08:21:17.627Z,100.00
2023-01-17T08:23:48.696Z,100.00
2023-01-17T08:26:21.389Z,100.00
2023-01-17T08:28:56.599Z,100.00
2023-01-17T08:31:24.075Z,100.00
2023-01-17T08:33:50.731Z,100.00
2023-01-17T08:36:17.529Z,100.00
2023-01-17T08:38:44.240Z,100.00
2023-01-17T08:41:10.796Z,100.00
2023-01-17T08:43:37.426Z,100.00
2023-01-17T08:46:06.279Z,100.00
2023-01-17T08:48:32.936Z,100.00
2023-01-17T08:51:02.726Z,100.00
2023-01-17T08:53:29.428Z,100.00
2023-01-17T08:56:00.415Z,100.00
2023-01-17T08:58:30.455Z,100.00
2023-01-17T09:01:02.692Z,100.00
2023-01-17T09:03:30.498Z,100.00
2023-01-17T09:06:03.649Z,100.00
2023-01-17T09:08:30.746Z,100.00
2023-01-17T09:10:57.311Z,100.00
2023-01-17T09:13:24.279Z,100.00
2023-01-17T09:15:50.918Z,100.00
2023-01-17T09:18:17.488Z,100.00
2023-01-17T09:20:44.050Z,100.00
2023-01-17T09:23:10.592Z,100.00
2023-01-17T09:25:37.288Z,100.00
2023-01-17T09:28:03.869Z,100.00
2023-01-17T09:30:30.406Z,100.00
2023-01-17T09:32:56.961Z,100.00
2023-01-17T09:35:23.643Z,100.00
2023-01-17T09:37:51.517Z,100.00
2023-01-17T09:40:20.623Z,100.00
2023-01-17T09:42:51.043Z,100.00
2023-01-17T09:45:19.355Z,100.00
2023-01-17T09:47:48.562Z,100.00
2023-01-17T09:50:31.721Z,100.00
2023-01-17T09:53:04.572Z,100.00
2023-01-17T09:55:59.419Z,100.00
2023-01-17T09:58:53.144Z,100.00
2023-01-17T10:01:57.837Z,100.00
2023-01-17T10:04:33.901Z,100.00
2023-01-17T10:07:21.768Z,100.00
2023-01-17T10:10:17.124Z,100.00
2023-01-17T10:13:21.491Z,100.00
2023-01-17T10:16:21.882Z,100.00
2023-01-17T10:19:10.185Z,100.00
2023-01-17T10:21:59.136Z,100.00
2023-01-17T10:24:34.556Z,100.00
2023-01-17T10:27:02.315Z,100.00
2023-01-17T10:29:33.309Z,100.00
2023-01-17T10:32:01.007Z,100.00
2023-01-17T10:34:30.549Z,100.00
2023-01-17T10:37:24.108Z,100.00
2023-01-17T10:39:52.520Z,100.00
2023-01-17T10:42:26.963Z,100.00
2023-01-17T10:45:03.804Z,100.00
2023-01-17T10:47:34.535Z,100.00
2023-01-17T10:50:05.047Z,100.00
2023-01-17T10:52:37.533Z,100.00
2023-01-17T10:55:11.754Z,100.00
2023-01-17T10:57:43.700Z,100.00
2023-01-17T11:00:25.604Z,100.00
2023-01-17T11:02:52.636Z,100.00
2023-01-17T11:05:30.588Z,100.00
2023-01-17T11:08:04.846Z,100.00
2023-01-17T11:10:54.012Z,100.00
2023-01-17T11:13:29.967Z,100.00
2023-01-17T11:16:06.193Z,100.00
2023-01-17T11:18:35.861Z,100.00
2023-01-17T11:21:25.668Z,100.00
2023-01-17T11:23:56.760Z,100.00
2023-01-17T11:26:28.925Z,100.00
2023-01-17T11:29:35.835Z,100.00
2023-01-17T11:32:21.298Z,100.00
2023-01-17T11:35:19.060Z,100.00
2023-01-17T11:38:06.704Z,100.00
2023-01-17T11:40:38.955Z,100.00
2023-01-17T11:43:11.806Z,100.00
2023-01-17T11:45:39.454Z,100.00
2023-01-17T11:48:09.090Z,100.00
2023-01-17T11:51:04.463Z,100.00
2023-01-17T11:53:38.846Z,100.00
2023-01-17T11:56:06.944Z,100.00
2023-01-17T11:58:35.925Z,100.00
2023-01-17T12:01:23.948Z,100.00
2023-01-17T12:03:53.421Z,100.00
2023-01-17T12:06:51.488Z,100.00
2023-01-17T12:09:22.974Z,100.00
2023-01-17T12:12:29.704Z,100.00
2023-01-17T12:15:30.134Z,100.00
2023-01-17T12:18:38.388Z,100.00
2023-01-17T12:21:18.322Z,100.00
2023-01-17T12:24:05.500Z,100.00
2023-01-17T12:26:38.096Z,100.00
2023-01-17T12:29:14.148Z,100.00
2023-01-17T12:32:01.147Z,100.00
2023-01-17T12:34:36.098Z,100.00
2023-01-17T12:37:07.164Z,100.00
2023-01-17T12:39:39.084Z,100.00
2023-01-17T12:42:09.275Z,100.00
2023-01-17T12:45:07.030Z,100.00
2023-01-17T12:47:39.742Z,100.00
2023-01-17T12:50:40.388Z,100.00
2023-01-17T12:53:16.180Z,100.00
2023-01-17T12:56:24.493Z,100.00
2023-01-17T12:59:13.163Z,100.00
2023-01-17T13:01:40.153Z,100.00
2023-01-17T13:08:32.790Z,100.00
2023-01-17T13:11:43.864Z,100.00
2023-01-17T13:14:10.811Z,100.00
2023-01-17T13:16:44.534Z,100.00
2023-01-17T13:19:50.313Z,100.00
2023-01-17T13:22:21.865Z,100.00
2023-01-17T13:25:04.327Z,100.00
2023-01-17T13:27:59.797Z,100.00
2023-01-17T13:30:44.576Z,100.00
2023-01-17T13:33:49.357Z,100.00
2023-01-17T13:36:40.711Z,100.00
2023-01-17T13:39:29.603Z,100.00
2023-01-17T13:42:09.922Z,100.00
2023-01-17T13:44:50.572Z,100.00
2023-01-17T13:47:17.725Z,100.00
2023-01-17T13:49:49.291Z,99.21
2023-01-17T13:52:29.306Z,99.30
2023-01-17T13:55:05.508Z,99.10
2023-01-17T13:57:43.083Z,98.80
2023-01-17T14:00:18.302Z,97.83
2023-01-17T14:02:46.581Z,99.03
2023-01-17T14:05:20.385Z,98.51
2023-01-17T14:07:49.674Z,98.90
2023-01-17T14:11:00.379Z,99.32
2023-01-17T14:13:42.518Z,98.91
2023-01-17T14:16:25.462Z,98.47
2023-01-17T14:18:53.064Z,98.72
2023-01-17T14:22:03.267Z,99.43
2023-01-17T14:24:30.532Z,100.00
2023-01-17T14:26:59.412Z,100.00
2023-01-17T14:29:49.277Z,99.75
2023-01-17T14:32:42.177Z,99.52
2023-01-17T14:35:22.805Z,98.59
2023-01-17T14:38:01.650Z,98.36
2023-01-17T14:40:31.290Z,97.92
2023-01-17T14:43:19.534Z,97.72
2023-01-17T14:45:48.319Z,97.65
2023-01-17T14:48:16.830Z,98.49
2023-01-17T14:50:44.892Z,98.55
2023-01-17T14:53:12.138Z,98.67
2023-01-17T14:55:49.104Z,98.27
2023-01-17T14:58:28.154Z,98.51
2023-01-17T15:01:07.323Z,99.23
2023-01-17T15:03:51.086Z,98.67
2023-01-17T15:06:20.243Z,99.33
2023-01-17T15:08:47.796Z,99.21
2023-01-17T15:11:22.361Z,99.35
2023-01-17T15:13:50.099Z,99.89
2023-01-17T15:16:36.406Z,100.00
2023-01-17T15:19:13.003Z,100.00
2023-01-17T15:21:43.011Z,100.00
2023-01-17T15:24:17.308Z,99.98
2023-01-17T15:26:44.149Z,100.00
2023-01-17T15:29:32.194Z,100.00
2023-01-17T15:32:00.552Z,99.63
2023-01-17T15:34:33.019Z,99.21
2023-01-17T15:37:02.767Z,99.14
2023-01-17T15:39:39.060Z,99.49
2023-01-17T15:42:27.682Z,99.32
2023-01-17T15:45:03.077Z,98.99
2023-01-17T15:47:32.620Z,99.43
2023-01-17T15:52:49.296Z,100.00
2023-01-17T15:55:22.635Z,100.00
2023-01-17T15:57:49.510Z,100.00
2023-01-17T16:00:47.829Z,100.00
2023-01-17T16:03:21.095Z,100.00
2023-01-17T16:05:48.278Z,100.00
2023-01-17T16:08:30.955Z,100.00
2023-01-17T16:11:02.176Z,100.00
2023-01-17T16:13:30.708Z,100.00
2023-01-17T16:16:18.238Z,100.00
2023-01-17T16:18:46.530Z,100.00
2023-01-17T16:21:23.532Z,100.00
2023-01-17T16:23:50.422Z,100.00
2023-01-17T16:26:17.231Z,100.00
2023-01-17T16:28:43.869Z,100.00
2023-01-17T16:31:10.560Z,100.00
2023-01-17T16:33:37.675Z,100.00
2023-01-17T16:36:04.596Z,100.00
2023-01-17T16:38:32.199Z,100.00
2023-01-17T16:40:58.798Z,100.00
2023-01-17T16:43:25.387Z,100.00
2023-01-17T16:45:53.933Z,100.00
2023-01-17T16:48:21.000Z,100.00
2023-01-17T16:50:50.747Z,100.00
2023-01-17T16:53:24.300Z,100.00
2023-01-17T16:55:54.266Z,100.00
2023-01-17T16:58:20.807Z,100.00
2023-01-17T17:00:48.834Z,100.00
2023-01-17T17:03:20.487Z,100.00
2023-01-17T17:05:57.903Z,100.00
2023-01-17T17:08:26.137Z,100.00
2023-01-17T17:10:52.812Z,100.00
2023-01-17T17:13:20.899Z,100.00
2023-01-17T17:15:47.683Z,100.00
2023-01-17T17:18:15.726Z,100.00
2023-01-17T17:20:42.876Z,100.00
2023-01-17T17:23:13.988Z,100.00
2023-01-17T17:25:40.498Z,100.00
2023-01-17T17:28:07.072Z,100.00
2023-01-17T17:30:34.566Z,100.00
2023-01-17T17:33:04.701Z,99.14
2023-01-17T17:35:34.710Z,98.43
2023-01-17T17:38:01.330Z,98.18
2023-01-17T17:40:27.988Z,97.87
2023-01-17T17:42:56.698Z,98.29
2023-01-17T17:45:23.807Z,97.87
2023-01-17T17:47:53.079Z,97.20
2023-01-17T17:50:19.894Z,96.24
2023-01-17T17:52:48.205Z,97.00
2023-01-17T17:55:19.040Z,95.60
2023-01-17T17:57:46.102Z,95.49
2023-01-17T18:00:13.011Z,95.19
2023-01-17T18:02:39.748Z,95.25
2023-01-17T18:05:06.892Z,95.64
2023-01-17T18:07:34.262Z,95.35
2023-01-17T18:10:00.784Z,96.20
2023-01-17T18:12:27.425Z,96.93
2023-01-17T18:14:55.201Z,97.45
2023-01-17T18:17:21.882Z,97.61
2023-01-17T18:19:48.667Z,97.55
2023-01-17T18:22:15.255Z,97.99
2023-01-17T18:24:41.913Z,98.69
2023-01-17T18:27:10.407Z,99.01
2023-01-17T18:29:37.637Z,99.77
2023-01-17T18:32:04.415Z,100.00
2023-01-17T18:34:31.103Z,100.00
2023-01-17T18:36:58.183Z,99.77
2023-01-17T18:39:29.387Z,99.51
2023-01-17T18:41:56.064Z,100.00
2023-01-17T18:44:23.134Z,99.25
2023-01-17T18:46:50.732Z,99.73
2023-01-17T18:49:19.221Z,99.88
2023-01-17T18:51:50.220Z,99.31
2023-01-17T18:54:17.738Z,99.76
2023-01-17T18:56:44.301Z,100.00
2023-01-17T18:59:14.260Z,100.00
2023-01-17T19:01:45.922Z,100.00
2023-01-17T19:04:17.385Z,100.00
2023-01-17T19:06:46.584Z,100.00
2023-01-17T19:09:15.831Z,100.00
2023-01-17T19:11:44.491Z,100.00
2023-01-17T19:14:14.493Z,100.00
2023-01-17T19:16:41.930Z,100.00
2023-01-17T19:19:11.379Z,100.00
2023-01-17T19:21:38.274Z,100.00
2023-01-17T19:24:05.167Z,100.00
2023-01-17T19:26:31.720Z,100.00
2023-01-17T19:29:05.697Z,100.00
2023-01-17T19:31:35.780Z,100.00
2023-01-17T19:34:02.421Z,100.00
2023-01-17T19:36:34.395Z,100.00
2023-01-17T19:39:06.162Z,100.00
2023-01-17T19:41:41.038Z,100.00
2023-01-17T19:44:09.005Z,100.00
2023-01-17T19:46:35.980Z,100.00
2023-01-17T19:49:04.033Z,99.87
2023-01-17T19:51:30.579Z,100.00
2023-01-17T19:54:01.835Z,100.00
2023-01-17T19:56:29.229Z,100.00
2023-01-17T19:59:01.769Z,100.00
2023-01-17T20:01:32.255Z,99.67
2023-01-17T20:04:00.371Z,100.00
2023-01-17T20:06:30.949Z,100.00
2023-01-17T20:09:00.869Z,100.00
2023-01-17T20:11:28.916Z,100.00
2023-01-17T20:13:57.356Z,100.00
2023-01-17T20:16:25.614Z,100.00
2023-01-17T20:18:53.659Z,100.00
2023-01-17T20:21:27.716Z,100.00
2023-01-17T20:23:55.014Z,100.00
2023-01-17T20:26:31.275Z,100.00
2023-01-17T20:29:01.289Z,99.94
2023-01-17T20:31:28.740Z,100.00
2023-01-17T20:33:56.259Z,100.00
2023-01-17T20:36:24.901Z,100.00
2023-01-17T20:38:51.595Z,100.00
2023-01-17T20:41:19.105Z,100.00
2023-01-17T20:43:47.683Z,100.00
2023-01-17T20:46:15.383Z,100.00
2023-01-17T20:48:45.640Z,100.00
2023-01-17T20:51:12.858Z,100.00
2023-01-17T20:53:42.594Z,100.00
2023-01-17T20:56:11.764Z,100.00
2023-01-17T20:58:38.826Z,100.00
2023-01-17T21:01:06.348Z,100.00
2023-01-17T21:03:35.034Z,100.00
2023-01-17T21:06:03.643Z,100.00
2023-01-17T21:08:33.583Z,100.00
2023-01-17T21:11:00.618Z,100.00
2023-01-17T21:13:28.711Z,100.00
2023-01-17T21:15:55.414Z,100.00
2023-01-17T21:18:23.889Z,100.00
2023-01-17T21:20:50.837Z,100.00
2023-01-17T21:23:17.983Z,100.00
2023-01-17T21:25:55.750Z,100.00
2023-01-17T21:28:25.253Z,100.00
2023-01-17T21:30:52.644Z,100.00
2023-01-17T21:33:20.862Z,100.00
2023-01-17T21:35:47.394Z,100.00
2023-01-17T21:38:15.626Z,100.00
2023-01-17T21:40:45.796Z,100.00
2023-01-17T21:43:12.960Z,100.00
2023-01-17T21:45:40.776Z,100.00
2023-01-17T21:48:12.175Z,100.00
2023-01-17T21:50:39.016Z,100.00
2023-01-17T21:53:05.556Z,100.00
2023-01-17T21:55:50.439Z,100.00
2023-01-17T21:58:36.492Z,100.00
2023-01-17T22:01:21.611Z,100.00
2023-01-17T22:03:56.308Z,100.00
2023-01-17T22:06:25.547Z,100.00
2023-01-17T22:08:52.168Z,100.00
2023-01-17T22:11:21.554Z,100.00
2023-01-17T22:13:49.139Z,100.00
2023-01-17T22:16:21.344Z,100.00
2023-01-17T22:18:50.023Z,100.00
2023-01-17T22:21:20.808Z,100.00
2023-01-17T22:23:52.046Z,100.00
2023-01-17T22:26:20.628Z,100.00
2023-01-17T22:28:47.363Z,99.73
2023-01-17T22:31:20.768Z,100.00
2023-01-17T22:33:51.671Z,100.00
2023-01-17T22:36:18.244Z,100.00
2023-01-17T22:38:44.859Z,100.00
2023-01-17T22:41:16.537Z,100.00
2023-01-17T22:43:44.721Z,100.00
2023-01-17T22:46:15.592Z,100.00
2023-01-17T22:48:42.651Z,100.00
2023-01-17T22:51:11.710Z,100.00
2023-01-17T22:53:42.755Z,100.00
2023-01-17T22:56:13.079Z,100.00
2023-01-17T22:58:45.119Z,100.00
2023-01-17T23:01:19.807Z,100.00
2023-01-17T23:03:55.221Z,100.00
2023-01-17T23:06:30.441Z,100.00
2023-01-17T23:08:59.379Z,100.00
2023-01-17T23:11:42.436Z,100.00
2023-01-17T23:14:29.144Z,99.93
2023-01-17T23:17:17.867Z,100.00
2023-01-17T23:19:49.499Z,100.00
2023-01-17T23:22:23.232Z,100.00
2023-01-17T23:25:09.533Z,100.00
2023-01-17T23:28:00.249Z,100.00
2023-01-17T23:30:43.031Z,100.00
2023-01-17T23:33:11.878Z,100.00
2023-01-17T23:35:42.150Z,100.00
2023-01-17T23:38:37.663Z,100.00
2023-01-17T23:41:25.271Z,100.00
2023-01-17T23:43:53.549Z,100.00
2023-01-17T23:46:20.731Z,100.00
2023-01-17T23:48:47.977Z,100.00
2023-01-17T23:51:14.645Z,100.00
2023-01-17T23:53:41.458Z,100.00
2023-01-17T23:56:19.649Z,100.00
2023-01-17T23:58:46.847Z,100.00
